createdAt,value
2022-09-28T00:01:44.827Z,73.80
2022-09-28T00:03:51.663Z,73.75
2022-09-28T00:06:02.589Z,73.70
2022-09-28T00:08:07.372Z,74.05
2022-09-28T00:10:12.543Z,73.84
2022-09-28T00:12:17.625Z,73.87
2022-09-28T00:14:22.607Z,74.01
2022-09-28T00:16:29.698Z,73.94
2022-09-28T00:18:35.063Z,74.28
2022-09-28T00:20:39.766Z,74.34
2022-09-28T00:22:44.620Z,74.34
2022-09-28T00:24:49.329Z,74.71
2022-09-28T00:26:55.663Z,74.71
2022-09-28T00:29:01.969Z,74.85
2022-09-28T00:31:07.020Z,74.55
2022-09-28T00:33:12.100Z,74.63
2022-09-28T00:35:16.976Z,74.60
2022-09-28T00:37:21.923Z,74.96
2022-09-28T00:39:27.145Z,75.12
2022-09-28T00:41:32.094Z,75.42
2022-09-28T00:43:36.946Z,74.92
2022-09-28T00:45:41.793Z,74.90
2022-09-28T00:47:50.163Z,75.06
2022-09-28T00:50:01.457Z,75.08
2022-09-28T00:52:10.902Z,74.93
2022-09-28T00:54:17.629Z,75.38
2022-09-28T00:56:25.754Z,75.03
2022-09-28T00:58:33.588Z,75.14
2022-09-28T01:00:39.213Z,75.13
2022-09-28T01:02:45.046Z,75.10
2022-09-28T01:04:50.850Z,74.84
2022-09-28T01:06:57.159Z,74.67
2022-09-28T01:09:04.843Z,75.14
2022-09-28T01:11:09.578Z,74.89
2022-09-28T01:13:15.616Z,74.85
2022-09-28T01:15:22.248Z,74.62
2022-09-28T01:17:31.432Z,74.42
2022-09-28T01:20:07.405Z,74.19
2022-09-28T01:22:27.235Z,74.05
2022-09-28T01:24:42.671Z,73.92
2022-09-28T01:27:15.902Z,73.70
2022-09-28T01:29:32.054Z,73.70
2022-09-28T01:31:41.796Z,73.30
2022-09-28T01:33:51.383Z,73.23
2022-09-28T01:36:02.232Z,73.03
2022-09-28T01:38:13.446Z,72.75
2022-09-28T01:40:19.760Z,72.50
2022-09-28T01:42:28.468Z,72.45
2022-09-28T01:44:37.082Z,72.52
2022-09-28T01:46:46.649Z,72.43
2022-09-28T01:48:57.867Z,72.77
2022-09-28T01:51:08.197Z,72.09
2022-09-28T01:53:19.537Z,72.51
2022-09-28T01:55:31.705Z,72.55
2022-09-28T01:57:42.448Z,72.57
2022-09-28T01:59:55.623Z,72.73
2022-09-28T02:02:04.661Z,72.81
2022-09-28T02:04:14.984Z,72.87
2022-09-28T02:06:28.601Z,73.11
2022-09-28T02:08:37.637Z,73.21
2022-09-28T02:10:48.377Z,73.54
2022-09-28T02:12:57.143Z,73.18
2022-09-28T02:15:11.757Z,73.60
2022-09-28T02:17:16.886Z,73.44
2022-09-28T02:19:27.513Z,73.55
2022-09-28T02:21:37.727Z,73.42
2022-09-28T02:23:55.663Z,73.87
2022-09-28T02:26:05.116Z,73.48
2022-09-28T02:28:12.614Z,73.71
2022-09-28T02:30:17.464Z,74.06
2022-09-28T02:32:23.615Z,73.85
2022-09-28T02:34:28.405Z,74.06
2022-09-28T02:36:34.111Z,74.24
2022-09-28T02:38:39.633Z,73.97
2022-09-28T02:40:49.719Z,73.92
2022-09-28T02:43:03.744Z,73.66
2022-09-28T02:45:22.530Z,73.71
2022-09-28T02:47:38.370Z,73.83
2022-09-28T02:49:50.341Z,73.77
2022-09-28T02:52:21.979Z,73.43
2022-09-28T02:54:47.433Z,73.06
2022-09-28T02:57:18.397Z,73.03
2022-09-28T02:59:40.138Z,73.15
2022-09-28T03:01:57.268Z,72.73
2022-09-28T03:04:12.201Z,72.30
2022-09-28T03:06:24.102Z,72.26
2022-09-28T03:08:33.351Z,72.80
2022-09-28T03:10:43.350Z,73.14
2022-09-28T03:12:50.412Z,72.81
2022-09-28T03:15:11.075Z,72.80
2022-09-28T03:17:16.082Z,72.64
2022-09-28T03:19:24.858Z,72.56
2022-09-28T03:21:29.547Z,72.82
2022-09-28T03:23:34.312Z,72.80
2022-09-28T03:25:39.394Z,72.95
2022-09-28T03:27:44.163Z,73.25
2022-09-28T03:29:49.246Z,73.40
2022-09-28T03:31:53.952Z,74.01
2022-09-28T03:33:59.117Z,74.06
2022-09-28T03:36:04.292Z,74.39
2022-09-28T03:38:09.281Z,74.37
2022-09-28T03:40:15.495Z,74.38
2022-09-28T03:42:20.573Z,74.37
2022-09-28T03:44:26.721Z,74.31
2022-09-28T03:46:31.383Z,74.61
2022-09-28T03:48:41.911Z,74.56
2022-09-28T03:50:47.662Z,74.67
2022-09-28T03:52:52.359Z,74.74
2022-09-28T03:54:57.204Z,74.85
2022-09-28T03:57:01.921Z,75.10
2022-09-28T03:59:06.925Z,74.97
2022-09-28T04:01:16.985Z,74.94
2022-09-28T04:03:22.849Z,74.78
2022-09-28T04:05:27.586Z,74.69
2022-09-28T04:07:32.257Z,74.34
2022-09-28T04:09:36.902Z,73.99
2022-09-28T04:12:02.400Z,73.88
2022-09-28T04:14:06.988Z,73.79
2022-09-28T04:16:12.597Z,73.74
2022-09-28T04:18:20.839Z,73.79
2022-09-28T04:20:35.469Z,73.90
2022-09-28T04:22:44.232Z,73.98
2022-09-28T04:24:48.910Z,74.84
2022-09-28T04:26:53.615Z,74.25
2022-09-28T04:29:01.574Z,74.09
2022-09-28T04:31:13.180Z,73.86
2022-09-28T04:33:18.001Z,73.93
2022-09-28T04:35:22.813Z,74.13
2022-09-28T04:37:27.858Z,73.97
2022-09-28T04:39:35.460Z,74.11
2022-09-28T04:41:40.536Z,74.36
2022-09-28T04:43:46.347Z,74.60
2022-09-28T04:45:53.021Z,74.35
2022-09-28T04:47:58.925Z,74.65
2022-09-28T04:50:22.416Z,74.61
2022-09-28T04:53:05.705Z,74.90
2022-09-28T04:55:13.896Z,75.04
2022-09-28T04:57:18.630Z,75.18
2022-09-28T04:59:24.642Z,75.19
2022-09-28T05:01:29.461Z,75.44
2022-09-28T05:03:37.787Z,75.17
2022-09-28T05:05:53.605Z,75.12
2022-09-28T05:08:17.111Z,75.33
2022-09-28T05:10:22.311Z,74.91
2022-09-28T05:12:30.200Z,74.99
2022-09-28T05:14:34.971Z,75.50
2022-09-28T05:16:41.791Z,74.89
2022-09-28T05:19:05.152Z,74.74
2022-09-28T05:21:13.555Z,74.86
2022-09-28T05:23:18.739Z,74.75
2022-09-28T05:25:23.840Z,75.15
2022-09-28T05:27:40.569Z,75.19
2022-09-28T05:29:59.775Z,75.11
2022-09-28T05:32:07.289Z,75.07
2022-09-28T05:34:41.258Z,75.24
2022-09-28T05:36:50.715Z,75.08
2022-09-28T05:38:55.683Z,75.00
2022-09-28T05:41:05.681Z,74.82
2022-09-28T05:43:11.251Z,74.52
2022-09-28T05:45:16.237Z,74.62
2022-09-28T05:47:22.747Z,74.73
2022-09-28T05:49:27.806Z,74.23
2022-09-28T05:51:32.464Z,74.15
2022-09-28T05:53:37.213Z,74.34
2022-09-28T05:55:42.618Z,74.46
2022-09-28T05:57:47.300Z,73.79
2022-09-28T05:59:52.090Z,73.94
2022-09-28T06:01:56.822Z,74.28
2022-09-28T06:04:01.730Z,74.18
2022-09-28T06:06:06.639Z,74.28
2022-09-28T06:08:11.921Z,73.58
2022-09-28T06:10:21.086Z,73.80
2022-09-28T06:12:26.178Z,74.34
2022-09-28T06:14:37.332Z,74.35
2022-09-28T06:16:43.930Z,74.00
2022-09-28T06:18:49.857Z,73.84
2022-09-28T06:21:13.948Z,74.23
2022-09-28T06:23:21.889Z,74.08
2022-09-28T06:25:26.662Z,74.29
2022-09-28T06:27:31.367Z,74.24
2022-09-28T06:29:35.977Z,74.08
2022-09-28T06:31:40.732Z,74.33
2022-09-28T06:33:48.193Z,74.33
2022-09-28T06:35:53.042Z,74.82
2022-09-28T06:37:58.585Z,74.77
2022-09-28T06:40:03.592Z,74.78
2022-09-28T06:42:08.575Z,74.61
2022-09-28T06:44:36.357Z,74.88
2022-09-28T06:47:13.417Z,74.45
2022-09-28T06:49:41.314Z,73.31
2022-09-28T06:52:01.336Z,73.00
2022-09-28T06:54:28.997Z,73.08
2022-09-28T06:56:46.394Z,73.36
2022-09-28T06:58:51.105Z,73.35
2022-09-28T07:00:58.479Z,72.85
2022-09-28T07:03:05.924Z,72.46
2022-09-28T07:05:25.611Z,72.34
2022-09-28T07:07:50.466Z,72.21
2022-09-28T07:10:11.734Z,71.89
2022-09-28T07:12:36.466Z,71.69
2022-09-28T07:15:00.224Z,71.63
2022-09-28T07:17:13.560Z,71.62
2022-09-28T07:19:19.662Z,71.82
2022-09-28T07:21:29.572Z,72.15
2022-09-28T07:23:50.327Z,72.07
2022-09-28T07:26:20.620Z,72.53
2022-09-28T07:28:32.661Z,72.98
2022-09-28T07:30:52.802Z,72.98
2022-09-28T07:33:18.177Z,73.09
2022-09-28T07:35:31.919Z,73.11
2022-09-28T07:37:37.808Z,72.82
2022-09-28T07:39:42.548Z,72.76
2022-09-28T07:41:47.285Z,73.04
2022-09-28T07:43:53.188Z,73.09
2022-09-28T07:45:57.915Z,73.56
2022-09-28T07:48:03.499Z,73.67
2022-09-28T07:50:26.925Z,73.86
2022-09-28T07:52:51.909Z,73.97
2022-09-28T07:55:07.075Z,74.17
2022-09-28T07:57:33.586Z,73.88
2022-09-28T07:59:51.276Z,73.92
2022-09-28T08:02:15.180Z,74.00
2022-09-28T08:04:20.519Z,74.23
2022-09-28T08:06:25.308Z,74.44
2022-09-28T08:08:30.411Z,74.98
2022-09-28T08:10:36.129Z,75.34
2022-09-28T08:13:06.392Z,75.33
2022-09-28T08:15:20.839Z,75.53
2022-09-28T08:17:32.422Z,75.90
2022-09-28T08:19:38.657Z,75.78
2022-09-28T08:21:43.602Z,75.91
2022-09-28T08:23:48.708Z,76.07
2022-09-28T08:25:53.993Z,75.77
2022-09-28T08:27:59.681Z,75.54
2022-09-28T08:30:06.567Z,75.39
2022-09-28T08:32:17.895Z,75.21
2022-09-28T08:34:51.815Z,75.26
2022-09-28T08:37:19.337Z,75.02
2022-09-28T08:39:42.705Z,74.31
2022-09-28T08:42:14.780Z,74.61
2022-09-28T08:44:45.737Z,75.34
2022-09-28T08:47:29.630Z,75.91
2022-09-28T08:52:17.584Z,76.21
2022-09-28T08:54:53.931Z,76.49
2022-09-28T08:57:16.599Z,76.31
2022-09-28T08:59:25.309Z,76.87
2022-09-28T09:01:43.016Z,77.23
2022-09-28T09:03:50.864Z,76.90
2022-09-28T09:06:24.277Z,76.15
2022-09-28T09:08:45.685Z,74.85
2022-09-28T09:10:53.579Z,74.53
2022-09-28T09:13:15.166Z,73.79
2022-09-28T09:15:40.387Z,73.83
2022-09-28T09:18:08.852Z,73.77
2022-09-28T09:20:47.748Z,73.04
2022-09-28T09:23:05.977Z,71.85
2022-09-28T09:25:20.430Z,71.61
2022-09-28T09:27:41.569Z,70.79
2022-09-28T09:30:02.772Z,70.83
2022-09-28T09:32:24.119Z,70.99
2022-09-28T09:34:41.892Z,70.89
2022-09-28T09:37:40.652Z,70.16
2022-09-28T09:40:23.353Z,70.06
2022-09-28T09:43:03.344Z,70.51
2022-09-28T09:45:45.361Z,70.54
2022-09-28T09:48:15.599Z,70.74
2022-09-28T09:50:25.967Z,70.76
2022-09-28T09:52:43.776Z,70.45
2022-09-28T09:54:54.944Z,70.04
2022-09-28T09:57:21.945Z,69.77
2022-09-28T09:59:42.295Z,69.67
2022-09-28T10:01:57.725Z,69.28
2022-09-28T10:04:34.612Z,69.32
2022-09-28T10:06:43.638Z,68.88
2022-09-28T10:08:56.254Z,68.64
2022-09-28T10:11:08.662Z,67.90
2022-09-28T10:13:14.982Z,67.22
2022-09-28T10:15:25.820Z,66.86
2022-09-28T10:17:41.544Z,65.25
2022-09-28T10:20:06.613Z,63.06
2022-09-28T10:22:20.766Z,62.65
2022-09-28T10:24:32.303Z,61.04
2022-09-28T10:26:40.624Z,59.09
2022-09-28T10:28:53.322Z,58.67
2022-09-28T10:30:58.367Z,58.19
2022-09-28T10:33:03.815Z,57.43
2022-09-28T10:35:24.628Z,57.21
2022-09-28T10:37:34.102Z,58.10
2022-09-28T10:39:52.307Z,58.45
2022-09-28T10:41:58.796Z,57.82
2022-09-28T10:44:05.512Z,58.11
2022-09-28T10:46:23.533Z,57.85
2022-09-28T10:48:33.621Z,57.37
2022-09-28T10:50:39.776Z,56.67
2022-09-28T10:52:48.660Z,56.60
2022-09-28T10:55:28.819Z,56.37
2022-09-28T10:57:37.020Z,55.31
2022-09-28T10:59:46.334Z,54.85
2022-09-28T11:02:02.003Z,54.31
2022-09-28T11:04:16.905Z,54.50
2022-09-28T11:06:31.032Z,54.59
2022-09-28T11:08:38.412Z,54.49
2022-09-28T11:10:44.537Z,54.62
2022-09-28T11:12:53.128Z,54.74
2022-09-28T11:15:02.493Z,54.39
2022-09-28T11:17:25.544Z,54.30
2022-09-28T11:19:30.519Z,54.75
2022-09-28T11:21:43.426Z,54.87
2022-09-28T11:24:02.488Z,54.85
2022-09-28T11:26:09.121Z,54.40
2022-09-28T11:28:24.901Z,54.20
2022-09-28T11:30:34.094Z,53.88
2022-09-28T11:33:05.111Z,53.66
2022-09-28T11:35:42.399Z,53.97
2022-09-28T11:37:58.145Z,53.80
2022-09-28T11:40:51.394Z,53.81
2022-09-28T11:43:09.509Z,53.93
2022-09-28T11:45:32.599Z,54.08
2022-09-28T11:47:54.010Z,53.88
2022-09-28T11:50:04.925Z,54.12
2022-09-28T11:52:17.197Z,54.04
2022-09-28T11:54:27.553Z,53.57
2022-09-28T11:56:39.845Z,53.77
2022-09-28T11:58:49.159Z,53.33
2022-09-28T12:00:59.148Z,53.85
2022-09-28T12:03:16.348Z,54.07
2022-09-28T12:05:26.938Z,53.95
2022-09-28T12:07:37.474Z,54.21
2022-09-28T12:09:48.661Z,54.24
2022-09-28T12:12:00.891Z,54.47
2022-09-28T12:14:24.589Z,54.37
2022-09-28T12:19:04.363Z,54.05
2022-09-28T12:21:33.559Z,53.54
2022-09-28T12:23:42.009Z,54.20
2022-09-28T12:25:52.067Z,54.60
2022-09-28T12:28:00.501Z,54.83
2022-09-28T12:30:13.016Z,54.63
2022-09-28T12:32:28.533Z,54.97
2022-09-28T12:34:33.592Z,54.78
2022-09-28T12:36:51.054Z,54.88
2022-09-28T12:39:24.059Z,55.11
2022-09-28T12:41:53.919Z,55.30
2022-09-28T12:44:20.780Z,55.30
2022-09-28T12:46:46.307Z,55.53
2022-09-28T12:51:47.396Z,55.52
2022-09-28T12:54:08.468Z,55.42
2022-09-28T12:56:23.416Z,55.22
2022-09-28T12:58:42.255Z,55.20
2022-09-28T13:00:56.719Z,54.46
2022-09-28T13:03:45.782Z,54.59
2022-09-28T13:06:31.399Z,54.59
2022-09-28T13:08:47.239Z,54.35
2022-09-28T13:11:07.869Z,54.18
2022-09-28T13:13:32.254Z,54.56
2022-09-28T13:15:43.927Z,54.33
2022-09-28T13:17:59.640Z,54.16
2022-09-28T13:20:14.947Z,54.16
2022-09-28T13:22:28.470Z,53.66
2022-09-28T13:24:37.461Z,52.81
2022-09-28T13:26:47.177Z,53.26
2022-09-28T13:28:54.330Z,53.49
2022-09-28T13:31:00.555Z,53.02
2022-09-28T13:33:08.262Z,53.34
2022-09-28T13:35:18.091Z,53.74
2022-09-28T13:37:25.020Z,53.94
2022-09-28T13:39:50.120Z,53.55
2022-09-28T13:41:54.916Z,53.71
2022-09-28T13:44:33.856Z,53.90
2022-09-28T13:46:46.824Z,53.73
2022-09-28T13:49:05.444Z,53.77
2022-09-28T13:51:24.259Z,53.90
2022-09-28T13:53:37.526Z,53.73
2022-09-28T13:55:56.269Z,53.72
2022-09-28T13:58:04.381Z,53.66
2022-09-28T14:00:25.908Z,52.35
2022-09-28T14:02:36.243Z,51.92
2022-09-28T14:05:00.221Z,52.82
2022-09-28T14:07:16.366Z,53.31
2022-09-28T14:09:42.141Z,53.66
2022-09-28T14:11:56.616Z,53.97
2022-09-28T14:14:05.185Z,53.90
2022-09-28T14:16:25.809Z,54.09
2022-09-28T14:18:33.300Z,54.05
2022-09-28T14:20:46.204Z,53.84
2022-09-28T14:23:09.611Z,53.61
2022-09-28T14:25:21.014Z,52.19
2022-09-28T14:28:05.994Z,50.85
2022-09-28T14:30:21.269Z,49.33
2022-09-28T14:32:34.121Z,48.73
2022-09-28T14:34:41.586Z,48.50
2022-09-28T14:36:49.714Z,48.26
2022-09-28T14:38:54.642Z,47.99
2022-09-28T14:41:06.047Z,48.06
2022-09-28T14:43:35.319Z,48.13
2022-09-28T14:45:40.159Z,48.12
2022-09-28T14:48:03.805Z,48.55
2022-09-28T14:50:22.468Z,48.21
2022-09-28T14:52:43.502Z,48.56
2022-09-28T14:54:53.178Z,48.79
2022-09-28T14:57:15.398Z,49.17
2022-09-28T14:59:22.142Z,49.45
2022-09-28T15:01:28.160Z,49.48
2022-09-28T15:03:35.514Z,49.22
2022-09-28T15:05:45.008Z,48.51
2022-09-28T15:07:51.778Z,48.40
2022-09-28T15:09:57.721Z,48.15
2022-09-28T15:12:04.889Z,48.19
2022-09-28T15:14:12.751Z,48.50
2022-09-28T15:16:22.756Z,48.65
2022-09-28T15:18:56.857Z,48.96
2022-09-28T15:21:01.873Z,48.89
2022-09-28T15:23:23.542Z,49.28
2022-09-28T15:25:30.277Z,49.60
2022-09-28T15:27:39.558Z,50.02
2022-09-28T15:29:59.085Z,50.05
2022-09-28T15:32:04.070Z,50.13
2022-09-28T15:34:26.114Z,50.23
2022-09-28T15:36:37.959Z,50.43
2022-09-28T15:38:44.683Z,50.60
2022-09-28T15:40:49.893Z,50.70
2022-09-28T15:42:59.083Z,50.58
2022-09-28T15:45:22.950Z,50.81
2022-09-28T15:47:29.605Z,50.91
2022-09-28T15:49:39.683Z,50.93
2022-09-28T15:51:52.885Z,51.27
2022-09-28T15:54:01.645Z,51.39
2022-09-28T15:56:07.919Z,51.52
2022-09-28T15:58:20.349Z,51.65
2022-09-28T16:00:30.711Z,51.82
2022-09-28T16:02:35.493Z,52.02
2022-09-28T16:04:46.159Z,51.92
2022-09-28T16:07:17.383Z,52.10
2022-09-28T16:09:36.122Z,52.59
2022-09-28T16:11:45.197Z,53.14
2022-09-28T16:13:57.866Z,53.35
2022-09-28T16:16:02.974Z,53.81
2022-09-28T16:18:19.124Z,54.01
2022-09-28T16:20:28.116Z,54.16
2022-09-28T16:22:33.430Z,54.06
2022-09-28T16:24:40.069Z,54.58
2022-09-28T16:26:45.157Z,54.62
2022-09-28T16:28:52.213Z,54.83
2022-09-28T16:31:06.488Z,55.06
2022-09-28T16:33:29.261Z,55.19
2022-09-28T16:35:49.543Z,55.35
2022-09-28T16:38:03.473Z,55.15
2022-09-28T16:40:09.856Z,55.27
2022-09-28T16:42:14.731Z,54.70
2022-09-28T16:44:24.731Z,54.48
2022-09-28T16:46:35.035Z,54.68
2022-09-28T16:48:43.219Z,54.62
2022-09-28T16:50:48.011Z,54.74
2022-09-28T16:53:00.290Z,54.92
2022-09-28T16:55:22.789Z,55.05
2022-09-28T16:57:30.965Z,55.00
2022-09-28T16:59:36.131Z,55.33
2022-09-28T17:01:40.983Z,55.51
2022-09-28T17:03:45.768Z,55.46
2022-09-28T17:05:50.980Z,55.94
2022-09-28T17:08:03.205Z,55.89
2022-09-28T17:10:17.469Z,56.08
2022-09-28T17:12:23.874Z,56.28
2022-09-28T17:14:28.603Z,56.21
2022-09-28T17:18:58.963Z,56.64
2022-09-28T17:21:05.407Z,56.82
2022-09-28T17:23:13.227Z,56.83
2022-09-28T17:25:18.208Z,57.05
2022-09-28T17:27:23.056Z,57.23
2022-09-28T17:29:28.239Z,57.47
2022-09-28T17:31:33.126Z,57.32
2022-09-28T17:33:38.544Z,57.59
2022-09-28T17:35:44.452Z,57.61
2022-09-28T17:37:49.327Z,57.92
2022-09-28T17:39:54.126Z,57.85
2022-09-28T17:41:58.892Z,58.14
2022-09-28T17:44:03.912Z,58.35
2022-09-28T17:46:17.589Z,58.65
2022-09-28T17:48:22.640Z,58.76
2022-09-28T17:50:29.840Z,58.89
2022-09-28T17:52:34.524Z,59.07
2022-09-28T17:54:39.403Z,59.63
2022-09-28T17:56:44.278Z,59.51
2022-09-28T17:58:49.128Z,59.68
2022-09-28T18:00:53.827Z,59.86
2022-09-28T18:02:59.565Z,60.16
2022-09-28T18:05:04.554Z,60.28
2022-09-28T18:07:10.083Z,60.55
2022-09-28T18:09:15.963Z,61.03
2022-09-28T18:11:20.977Z,61.03
2022-09-28T18:13:25.802Z,61.22
2022-09-28T18:15:30.634Z,61.30
2022-09-28T18:17:35.519Z,61.60
2022-09-28T18:19:40.253Z,61.79
2022-09-28T18:21:45.030Z,62.10
2022-09-28T18:23:49.933Z,62.22
2022-09-28T18:25:55.726Z,62.55
2022-09-28T18:28:00.972Z,62.39
2022-09-28T18:30:07.469Z,62.64
2022-09-28T18:32:12.254Z,62.87
2022-09-28T18:34:17.276Z,63.13
2022-09-28T18:36:27.456Z,63.19
2022-09-28T18:38:34.568Z,63.19
2022-09-28T18:40:39.314Z,63.50
2022-09-28T18:42:44.107Z,63.41
2022-09-28T18:44:49.164Z,63.75
2022-09-28T18:46:54.285Z,63.95
2022-09-28T18:49:02.261Z,64.00
2022-09-28T18:51:09.807Z,64.08
2022-09-28T18:53:14.956Z,64.02
2022-09-28T18:55:21.110Z,64.32
2022-09-28T18:57:26.415Z,64.12
2022-09-28T18:59:31.431Z,64.44
2022-09-28T19:01:38.094Z,64.85
2022-09-28T19:03:43.458Z,64.65
2022-09-28T19:05:48.242Z,64.46
2022-09-28T19:07:53.103Z,64.48
2022-09-28T19:09:59.330Z,64.93
2022-09-28T19:12:04.336Z,64.89
2022-09-28T19:14:10.875Z,65.10
2022-09-28T19:16:18.513Z,65.54
2022-09-28T19:18:23.782Z,65.81
2022-09-28T19:20:28.999Z,65.97
2022-09-28T19:22:34.664Z,66.44
2022-09-28T19:24:41.098Z,66.69
2022-09-28T19:26:47.069Z,67.44
2022-09-28T19:28:52.612Z,67.76
2022-09-28T19:33:08.135Z,68.29
2022-09-28T19:35:13.326Z,68.31
2022-09-28T19:37:18.706Z,68.90
2022-09-28T19:39:23.534Z,68.97
2022-09-28T19:41:29.862Z,69.23
2022-09-28T19:43:35.140Z,68.78
2022-09-28T19:45:40.579Z,68.99
2022-09-28T19:47:48.638Z,68.79
2022-09-28T19:49:53.972Z,68.83
2022-09-28T19:52:12.611Z,68.67
2022-09-28T19:54:19.517Z,68.82
2022-09-28T19:56:24.857Z,68.64
2022-09-28T19:58:34.261Z,68.76
2022-09-28T20:00:40.546Z,68.55
2022-09-28T20:02:45.641Z,68.54
2022-09-28T20:04:50.989Z,68.34
2022-09-28T20:06:56.108Z,68.23
2022-09-28T20:09:01.230Z,68.17
2022-09-28T20:11:07.137Z,68.14
2022-09-28T20:13:12.152Z,68.11
2022-09-28T20:15:17.577Z,67.81
2022-09-28T20:17:22.566Z,68.11
2022-09-28T20:19:27.501Z,67.85
2022-09-28T20:21:32.611Z,67.76
2022-09-28T20:23:37.483Z,67.64
2022-09-28T20:25:42.290Z,67.44
2022-09-28T20:27:47.200Z,67.51
2022-09-28T20:29:52.046Z,67.33
2022-09-28T20:31:56.925Z,67.39
2022-09-28T20:34:01.857Z,67.64
2022-09-28T20:36:08.707Z,67.72
2022-09-28T20:38:13.588Z,67.83
2022-09-28T20:40:18.883Z,68.04
2022-09-28T20:42:23.891Z,68.17
2022-09-28T20:44:28.867Z,68.33
2022-09-28T20:46:33.829Z,68.21
2022-09-28T20:48:38.948Z,68.49
2022-09-28T20:50:43.969Z,68.60
2022-09-28T20:52:48.712Z,68.67
2022-09-28T20:54:53.429Z,68.74
2022-09-28T20:56:58.153Z,68.62
2022-09-28T20:59:03.341Z,68.93
2022-09-28T21:01:13.971Z,68.77
2022-09-28T21:03:18.628Z,69.12
2022-09-28T21:05:23.464Z,69.31
2022-09-28T21:07:28.276Z,69.37
2022-09-28T21:09:33.082Z,69.71
2022-09-28T21:11:38.284Z,70.38
2022-09-28T21:13:43.839Z,70.46
2022-09-28T21:15:48.881Z,71.05
2022-09-28T21:17:53.733Z,71.10
2022-09-28T21:19:58.479Z,71.59
2022-09-28T21:22:03.457Z,72.23
2022-09-28T21:24:08.819Z,72.57
2022-09-28T21:26:15.583Z,72.76
2022-09-28T21:28:20.265Z,72.99
2022-09-28T21:30:25.017Z,73.50
2022-09-28T21:32:31.070Z,74.33
2022-09-28T21:34:35.791Z,74.21
2022-09-28T21:36:40.537Z,74.75
2022-09-28T21:38:45.548Z,75.02
2022-09-28T21:40:56.018Z,75.14
2022-09-28T21:43:00.882Z,75.09
2022-09-28T21:45:07.104Z,75.21
2022-09-28T21:47:11.888Z,75.46
2022-09-28T21:49:16.733Z,75.88
2022-09-28T21:51:21.731Z,76.22
2022-09-28T21:53:28.614Z,75.86
2022-09-28T21:55:33.338Z,76.16
2022-09-28T21:57:38.028Z,76.57
2022-09-28T21:59:42.740Z,76.65
2022-09-28T22:01:47.513Z,76.58
2022-09-28T22:03:55.392Z,76.86
2022-09-28T22:06:00.254Z,77.22
2022-09-28T22:08:05.142Z,77.06
2022-09-28T22:10:14.216Z,77.45
2022-09-28T22:12:19.010Z,77.20
2022-09-28T22:14:23.762Z,77.26
2022-09-28T22:16:30.834Z,76.84
2022-09-28T22:18:36.005Z,75.98
2022-09-28T22:20:41.946Z,75.13
2022-09-28T22:22:51.621Z,74.36
2022-09-28T22:24:56.307Z,74.44
2022-09-28T22:27:01.658Z,74.26
2022-09-28T22:29:08.169Z,74.43
2022-09-28T22:31:12.923Z,74.61
2022-09-28T22:33:17.748Z,74.92
2022-09-28T22:35:22.492Z,75.31
2022-09-28T22:37:27.236Z,75.51
2022-09-28T22:39:36.710Z,75.89
2022-09-28T22:41:42.422Z,76.29
2022-09-28T22:43:47.491Z,76.55
2022-09-28T22:46:00.170Z,76.92
2022-09-28T22:48:05.269Z,77.40
2022-09-28T22:50:10.610Z,77.12
2022-09-28T22:52:15.401Z,77.48
2022-09-28T22:54:20.396Z,77.89
2022-09-28T22:56:26.048Z,78.15
2022-09-28T22:58:30.989Z,78.44
2022-09-28T23:00:35.749Z,78.60
2022-09-28T23:02:40.637Z,78.76
2022-09-28T23:04:48.256Z,78.56
2022-09-28T23:06:52.958Z,78.48
2022-09-28T23:08:58.067Z,78.04
2022-09-28T23:11:02.886Z,78.20
2022-09-28T23:13:07.605Z,78.16
2022-09-28T23:15:12.851Z,78.49
2022-09-28T23:17:17.599Z,78.78
2022-09-28T23:19:22.294Z,78.72
2022-09-28T23:21:28.955Z,79.13
2022-09-28T23:23:34.109Z,79.40
2022-09-28T23:25:38.849Z,79.72
2022-09-28T23:27:46.401Z,80.23
2022-09-28T23:29:51.132Z,80.61
2022-09-28T23:31:55.812Z,81.37
2022-09-28T23:34:04.432Z,81.58
2022-09-28T23:36:10.636Z,82.30
2022-09-28T23:38:16.795Z,82.64
2022-09-28T23:40:21.597Z,82.70
2022-09-28T23:42:26.295Z,82.50
2022-09-28T23:44:31.120Z,82.62
2022-09-28T23:46:35.911Z,82.53
2022-09-28T23:48:40.712Z,82.70
2022-09-28T23:50:45.939Z,83.16
2022-09-28T23:52:50.965Z,82.93
2022-09-28T23:54:55.617Z,83.27
2022-09-28T23:57:00.325Z,83.55
2022-09-28T23:59:05.103Z,82.80
